createdAt,value
2019-04-27T00:00:10.835Z,12.50
2019-04-27T00:03:02.298Z,8.30
2019-04-27T00:05:32.429Z,6.97
2019-04-27T00:08:15.533Z,12.20
2019-04-27T00:10:55.488Z,8.03
2019-04-27T00:13:24.031Z,9.27
2019-04-27T00:16:11.103Z,9.67
2019-04-27T00:18:45.520Z,8.83
2019-04-27T00:21:30.638Z,10.67
2019-04-27T00:23:59.149Z,11.70
2019-04-27T00:26:27.537Z,11.87
2019-04-27T00:28:55.994Z,23.87
2019-04-27T00:31:24.444Z,10.77
2019-04-27T00:33:53.587Z,16.27
2019-04-27T00:36:40.200Z,9.90
2019-04-27T00:39:26.847Z,10.60
2019-04-27T00:41:55.343Z,7.77
2019-04-27T00:44:23.815Z,12.83
2019-04-27T00:46:53.413Z,13.27
2019-04-27T00:49:21.923Z,14.30
2019-04-27T00:51:50.308Z,9.20
2019-04-27T00:54:18.688Z,8.63
2019-04-27T00:56:48.785Z,7.20
2019-04-27T00:59:21.517Z,10.20
2019-04-27T01:02:00.411Z,12.80
2019-04-27T01:04:34.000Z,8.27
2019-04-27T01:07:03.052Z,7.53
2019-04-27T01:09:31.428Z,12.23
2019-04-27T01:11:59.817Z,10.50
2019-04-27T01:14:28.209Z,10.70
2019-04-27T01:16:56.765Z,14.23
2019-04-27T01:19:25.230Z,11.27
2019-04-27T01:21:53.614Z,11.00
2019-04-27T01:24:23.364Z,9.10
2019-04-27T01:27:08.771Z,8.27
2019-04-27T01:29:39.224Z,9.30
2019-04-27T01:32:10.433Z,8.20
2019-04-27T01:34:39.667Z,8.83
2019-04-27T01:37:09.404Z,8.80
2019-04-27T01:39:38.701Z,9.97
2019-04-27T01:42:07.187Z,11.97
2019-04-27T01:44:35.640Z,10.63
2019-04-27T01:47:04.029Z,9.93
2019-04-27T01:49:32.426Z,11.67
2019-04-27T01:52:01.343Z,13.50
2019-04-27T01:54:29.907Z,9.20
2019-04-27T01:57:00.654Z,10.83
2019-04-27T01:59:29.952Z,15.93
2019-04-27T02:02:10.527Z,10.07
2019-04-27T02:04:43.616Z,14.30
2019-04-27T02:07:12.176Z,10.67
2019-04-27T02:09:40.567Z,10.37
2019-04-27T02:12:09.434Z,9.07
2019-04-27T02:14:38.947Z,12.20
2019-04-27T02:17:07.528Z,7.77
2019-04-27T02:19:35.993Z,12.80
2019-04-27T02:22:04.388Z,6.90
2019-04-27T02:24:32.776Z,9.90
2019-04-27T02:27:01.452Z,9.80
2019-04-27T02:29:31.489Z,15.97
2019-04-27T02:32:03.035Z,11.07
2019-04-27T02:34:36.243Z,14.63
2019-04-27T02:37:04.914Z,18.53
2019-04-27T02:39:33.316Z,9.73
2019-04-27T02:42:01.747Z,16.93
2019-04-27T02:44:40.222Z,9.80
2019-04-27T02:47:09.974Z,7.83
2019-04-27T02:49:40.382Z,13.83
2019-04-27T02:52:09.758Z,10.43
2019-04-27T02:54:40.006Z,12.33
2019-04-27T02:57:10.170Z,10.33
2019-04-27T02:59:39.955Z,8.97
2019-04-27T03:02:19.788Z,8.30
2019-04-27T03:04:49.818Z,18.60
2019-04-27T03:07:20.084Z,11.07
2019-04-27T03:09:50.966Z,7.90
2019-04-27T03:12:20.632Z,14.90
2019-04-27T03:15:00.011Z,11.87
2019-04-27T03:17:32.759Z,6.77
2019-04-27T03:20:14.868Z,10.10
2019-04-27T03:22:44.903Z,15.77
2019-04-27T03:25:15.661Z,9.80
2019-04-27T03:27:45.952Z,11.70
2019-04-27T03:30:15.647Z,8.23
2019-04-27T03:32:44.024Z,10.07
2019-04-27T03:35:13.354Z,11.00
2019-04-27T03:37:42.129Z,10.10
2019-04-27T03:40:10.539Z,14.10
2019-04-27T03:42:40.694Z,10.90
2019-04-27T03:45:10.889Z,10.90
2019-04-27T03:47:40.755Z,13.20
2019-04-27T03:50:11.526Z,8.63
2019-04-27T03:53:00.026Z,10.90
2019-04-27T03:55:30.654Z,7.40
2019-04-27T03:58:21.711Z,6.20
2019-04-27T04:00:52.132Z,6.63
2019-04-27T04:03:20.462Z,6.33
2019-04-27T04:05:49.478Z,8.33
2019-04-27T04:08:19.389Z,6.33
2019-04-27T04:10:49.651Z,5.17
2019-04-27T04:13:25.560Z,5.00
2019-04-27T04:16:00.147Z,6.77
2019-04-27T04:18:29.371Z,5.30
2019-04-27T04:21:00.441Z,5.23
2019-04-27T04:23:30.106Z,4.60
2019-04-27T04:25:59.769Z,7.20
2019-04-27T04:28:29.661Z,5.93
2019-04-27T04:31:00.549Z,6.83
2019-04-27T04:33:30.394Z,6.33
2019-04-27T04:35:59.709Z,10.00
2019-04-27T04:38:30.524Z,8.40
2019-04-27T04:41:09.648Z,6.77
2019-04-27T04:43:40.069Z,5.73
2019-04-27T04:46:26.707Z,7.73
2019-04-27T04:48:55.081Z,8.67
2019-04-27T04:51:23.471Z,7.27
2019-04-27T04:53:52.110Z,9.03
2019-04-27T04:56:20.560Z,6.70
2019-04-27T04:58:49.729Z,8.13
2019-04-27T05:01:19.671Z,7.97
2019-04-27T05:03:48.828Z,6.40
2019-04-27T05:06:18.911Z,10.10
2019-04-27T05:08:49.259Z,10.13
2019-04-27T05:11:19.498Z,8.73
2019-04-27T05:13:49.398Z,7.07
2019-04-27T05:16:18.885Z,8.33
2019-04-27T05:18:47.418Z,6.93
2019-04-27T05:21:18.547Z,7.73
2019-04-27T05:23:48.663Z,7.33
2019-04-27T05:26:17.125Z,6.10
2019-04-27T05:28:45.516Z,11.23
2019-04-27T05:31:13.967Z,10.73
2019-04-27T05:33:42.699Z,14.40
2019-04-27T05:36:11.090Z,7.20
2019-04-27T05:38:45.708Z,7.33
2019-04-27T05:41:09.633Z,8.37
2019-04-27T05:43:49.104Z,7.87
2019-04-27T05:46:41.609Z,10.17
2019-04-27T05:49:11.696Z,10.43
2019-04-27T05:51:41.883Z,10.00
2019-04-27T05:54:10.205Z,9.47
2019-04-27T05:56:39.106Z,8.43
2019-04-27T05:59:09.144Z,12.27
2019-04-27T06:01:38.903Z,13.00
2019-04-27T06:04:09.034Z,11.57
2019-04-27T06:06:39.693Z,7.87
2019-04-27T06:09:09.358Z,10.60
2019-04-27T06:11:39.809Z,10.77
2019-04-27T06:14:09.726Z,6.50
2019-04-27T06:16:39.385Z,11.00
2019-04-27T06:19:09.597Z,9.07
2019-04-27T06:21:39.911Z,8.70
2019-04-27T06:24:08.833Z,8.57
2019-04-27T06:26:37.366Z,12.70
2019-04-27T06:29:05.759Z,11.93
2019-04-27T06:31:34.146Z,11.63
2019-04-27T06:34:02.562Z,10.27
2019-04-27T06:36:31.859Z,9.50
2019-04-27T06:39:00.231Z,8.87
2019-04-27T06:41:29.480Z,10.10
2019-04-27T06:43:59.192Z,8.43
2019-04-27T06:46:28.804Z,11.60
2019-04-27T06:48:59.164Z,10.37
2019-04-27T06:51:28.699Z,11.10
2019-04-27T06:53:57.331Z,12.63
2019-04-27T06:56:25.786Z,10.03
2019-04-27T06:58:54.174Z,10.63
2019-04-27T07:01:22.563Z,10.20
2019-04-27T07:03:51.044Z,11.93
2019-04-27T07:06:19.415Z,12.00
2019-04-27T07:08:49.704Z,11.67
2019-04-27T07:11:19.712Z,13.43
2019-04-27T07:13:49.691Z,11.13
2019-04-27T07:16:19.624Z,13.77
2019-04-27T07:18:48.194Z,11.93
2019-04-27T07:21:19.455Z,10.27
2019-04-27T07:23:48.837Z,10.60
2019-04-27T07:26:19.104Z,14.40
2019-04-27T07:28:49.279Z,11.10
2019-04-27T07:31:19.249Z,9.10
2019-04-27T07:33:49.385Z,8.93
2019-04-27T07:36:18.847Z,9.23
2019-04-27T07:38:48.592Z,13.10
2019-04-27T07:41:17.106Z,10.60
2019-04-27T07:43:47.138Z,10.17
2019-04-27T07:46:15.523Z,8.50
2019-04-27T07:48:43.977Z,11.10
2019-04-27T07:51:12.363Z,9.17
2019-04-27T07:53:40.757Z,12.00
2019-04-27T07:56:10.739Z,15.47
2019-04-27T07:58:39.645Z,9.63
2019-04-27T08:01:09.280Z,8.60
2019-04-27T08:03:39.016Z,19.00
2019-04-27T08:06:08.499Z,8.07
2019-04-27T08:08:37.569Z,10.60
2019-04-27T08:11:06.098Z,11.50
2019-04-27T08:13:34.487Z,9.77
2019-04-27T08:16:02.876Z,9.70
2019-04-27T08:18:31.305Z,12.30
2019-04-27T08:20:59.801Z,10.33
2019-04-27T08:23:29.466Z,7.50
2019-04-27T08:25:58.843Z,8.00
2019-04-27T08:28:34.880Z,10.37
2019-04-27T08:31:08.936Z,9.23
2019-04-27T08:33:38.935Z,7.03
2019-04-27T08:36:08.993Z,9.27
2019-04-27T08:38:38.932Z,9.90
2019-04-27T08:41:08.979Z,11.47
2019-04-27T08:43:39.043Z,8.40
2019-04-27T08:46:08.736Z,13.70
2019-04-27T08:48:39.289Z,16.63
2019-04-27T08:51:09.418Z,8.37
2019-04-27T08:53:37.660Z,8.77
2019-04-27T08:56:06.048Z,8.90
2019-04-27T08:58:34.442Z,13.93
2019-04-27T09:01:02.883Z,10.07
2019-04-27T09:03:31.272Z,9.90
2019-04-27T09:05:59.686Z,10.30
2019-04-27T09:08:29.832Z,8.53
2019-04-27T09:11:14.827Z,12.10
2019-04-27T09:13:44.967Z,9.63
2019-04-27T09:16:30.177Z,12.77
2019-04-27T09:19:00.275Z,8.67
2019-04-27T09:21:30.290Z,8.93
2019-04-27T09:23:59.276Z,11.90
2019-04-27T09:26:28.757Z,6.83
2019-04-27T09:28:57.212Z,14.80
2019-04-27T09:31:25.581Z,7.40
2019-04-27T09:33:53.996Z,9.97
2019-04-27T09:36:22.388Z,7.07
2019-04-27T09:38:50.769Z,8.90
2019-04-27T09:41:19.307Z,11.10
2019-04-27T09:43:47.695Z,12.57
2019-04-27T09:46:16.086Z,8.30
2019-04-27T09:48:46.472Z,9.90
2019-04-27T09:51:16.265Z,8.80
2019-04-27T09:53:45.821Z,11.97
2019-04-27T09:56:16.374Z,6.87
2019-04-27T09:58:44.592Z,10.17
2019-04-27T10:01:15.767Z,5.23
2019-04-27T10:03:43.177Z,6.37
2019-04-27T10:06:12.042Z,4.87
2019-04-27T10:08:40.415Z,4.53
2019-04-27T10:11:08.893Z,5.13
2019-04-27T10:13:37.281Z,4.90
2019-04-27T10:16:06.052Z,4.37
2019-04-27T10:18:34.482Z,4.50
2019-04-27T10:21:02.866Z,8.50
2019-04-27T10:23:31.251Z,6.10
2019-04-27T10:25:59.728Z,9.13
2019-04-27T10:28:28.466Z,9.57
2019-04-27T10:30:56.852Z,15.90
2019-04-27T10:33:26.442Z,6.77
2019-04-27T10:35:56.457Z,11.70
2019-04-27T10:38:25.875Z,6.03
2019-04-27T10:40:54.689Z,3.37
2019-04-27T10:43:23.064Z,3.07
2019-04-27T10:45:51.460Z,6.20
2019-04-27T10:48:19.905Z,7.43
2019-04-27T10:50:48.291Z,8.23
2019-04-27T10:53:16.975Z,4.30
2019-04-27T10:55:46.395Z,3.00
2019-04-27T10:58:14.953Z,3.33
2019-04-27T11:00:51.501Z,2.87
2019-04-27T11:03:21.571Z,2.67
2019-04-27T11:06:07.069Z,2.73
2019-04-27T11:08:35.492Z,2.30
2019-04-27T11:11:03.884Z,3.70
2019-04-27T11:13:32.269Z,2.70
2019-04-27T11:16:00.736Z,2.30
2019-04-27T11:18:29.112Z,2.37
2019-04-27T11:20:57.507Z,3.90
2019-04-27T11:23:26.160Z,2.80
2019-04-27T11:25:54.800Z,1.77
2019-04-27T11:28:23.186Z,2.50
2019-04-27T11:30:51.627Z,1.70
2019-04-27T11:33:20.029Z,2.70
2019-04-27T11:35:53.366Z,3.40
2019-04-27T11:38:21.888Z,2.83
2019-04-27T11:40:50.283Z,3.13
2019-04-27T11:43:18.675Z,2.10
2019-04-27T11:45:47.148Z,2.60
2019-04-27T11:48:16.193Z,11.03
2019-04-27T11:50:45.892Z,8.50
2019-04-27T11:53:22.574Z,6.83
2019-04-27T11:55:45.111Z,7.00
2019-04-27T11:58:13.512Z,11.80
2019-04-27T12:00:42.038Z,2.23
2019-04-27T12:03:10.416Z,2.47
2019-04-27T12:05:38.801Z,4.40
2019-04-27T12:08:07.251Z,2.80
2019-04-27T12:10:36.313Z,4.10
2019-04-27T12:13:05.431Z,1.87
2019-04-27T12:15:36.218Z,17.50
2019-04-27T12:18:08.830Z,22.93
2019-04-27T12:20:35.889Z,6.50
2019-04-27T12:23:06.328Z,5.33
2019-04-27T12:25:37.042Z,6.00
2019-04-27T12:28:06.388Z,6.03
2019-04-27T12:30:48.686Z,2.73
2019-04-27T12:33:17.077Z,2.50
2019-04-27T12:35:46.254Z,15.90
2019-04-27T12:38:15.616Z,2.50
2019-04-27T12:40:44.005Z,2.67
2019-04-27T12:43:12.390Z,2.87
2019-04-27T12:45:43.441Z,4.43
2019-04-27T12:48:10.959Z,3.13
2019-04-27T12:50:39.581Z,3.03
2019-04-27T12:53:12.589Z,5.27
2019-04-27T12:55:51.844Z,2.33
2019-04-27T12:58:21.915Z,3.63
2019-04-27T13:00:54.892Z,5.40
2019-04-27T13:03:23.269Z,3.77
2019-04-27T13:05:51.730Z,2.43
2019-04-27T13:08:20.123Z,3.10
2019-04-27T13:10:48.512Z,1.40
2019-04-27T13:13:16.973Z,6.53
2019-04-27T13:15:46.032Z,6.60
2019-04-27T13:18:14.418Z,2.80
2019-04-27T13:20:42.879Z,6.70
2019-04-27T13:23:11.532Z,3.77
2019-04-27T13:25:39.925Z,5.07
2019-04-27T13:28:08.371Z,3.03
2019-04-27T13:30:36.762Z,3.20
2019-04-27T13:33:05.141Z,4.70
2019-04-27T13:35:34.241Z,4.50
2019-04-27T13:38:02.701Z,10.60
2019-04-27T13:40:32.727Z,3.53
2019-04-27T13:43:16.622Z,2.40
2019-04-27T13:45:49.148Z,3.47
2019-04-27T13:48:19.171Z,3.00
2019-04-27T13:50:49.269Z,4.23
2019-04-27T13:53:17.648Z,2.40
2019-04-27T13:55:46.723Z,1.80
2019-04-27T13:58:16.210Z,3.03
2019-04-27T14:00:44.667Z,2.37
2019-04-27T14:03:14.655Z,2.50
2019-04-27T14:05:43.213Z,1.90
2019-04-27T14:08:11.597Z,2.90
2019-04-27T14:10:39.989Z,2.53
2019-04-27T14:13:08.825Z,2.63
2019-04-27T14:15:39.048Z,1.93
2019-04-27T14:18:08.360Z,8.13
2019-04-27T14:20:38.959Z,5.00
2019-04-27T14:23:14.729Z,2.17
2019-04-27T14:25:43.144Z,2.40
2019-04-27T14:28:11.540Z,2.63
2019-04-27T14:30:40.134Z,1.50
2019-04-27T14:33:08.665Z,3.03
2019-04-27T14:35:37.030Z,3.87
2019-04-27T14:38:05.415Z,2.90
2019-04-27T14:40:34.060Z,3.00
2019-04-27T14:43:02.442Z,3.87
2019-04-27T14:45:30.822Z,4.10
2019-04-27T14:47:59.274Z,5.47
2019-04-27T14:50:27.752Z,2.53
2019-04-27T14:52:56.129Z,3.07
2019-04-27T14:55:24.549Z,2.70
2019-04-27T14:57:52.916Z,2.83
2019-04-27T15:00:21.987Z,2.73
2019-04-27T15:02:50.461Z,3.67
2019-04-27T15:05:18.840Z,6.90
2019-04-27T15:07:47.234Z,2.00
2019-04-27T15:10:16.231Z,2.80
2019-04-27T15:12:44.723Z,2.50
2019-04-27T15:15:13.176Z,3.63
2019-04-27T15:17:41.672Z,4.00
2019-04-27T15:20:31.066Z,4.30
2019-04-27T15:23:00.313Z,4.97
2019-04-27T15:25:28.718Z,2.07
2019-04-27T15:28:07.383Z,3.80
2019-04-27T15:30:39.614Z,2.00
2019-04-27T15:33:25.879Z,3.57
2019-04-27T15:35:58.761Z,4.27
2019-04-27T15:38:28.842Z,2.40
2019-04-27T15:41:11.091Z,3.80
2019-04-27T15:43:41.105Z,2.63
2019-04-27T15:46:09.484Z,4.07
2019-04-27T15:48:38.464Z,5.73
2019-04-27T15:51:16.225Z,4.00
2019-04-27T15:53:39.424Z,4.20
2019-04-27T15:56:08.886Z,3.10
2019-04-27T15:58:38.302Z,3.10
2019-04-27T16:01:09.932Z,3.47
2019-04-27T16:03:38.965Z,2.60
2019-04-27T16:06:11.684Z,3.53
2019-04-27T16:08:44.470Z,4.10
2019-04-27T16:11:09.942Z,2.97
2019-04-27T16:13:38.351Z,2.67
2019-04-27T16:16:08.456Z,3.20
2019-04-27T16:18:38.696Z,3.50
2019-04-27T16:21:08.935Z,2.27
2019-04-27T16:23:39.911Z,2.53
2019-04-27T16:26:11.304Z,4.00
2019-04-27T16:28:37.562Z,1.83
2019-04-27T16:31:05.885Z,5.40
2019-04-27T16:33:34.333Z,3.10
2019-04-27T16:36:06.857Z,4.03
2019-04-27T16:38:36.526Z,3.93
2019-04-27T16:41:04.899Z,4.03
2019-04-27T16:43:33.268Z,9.70
2019-04-27T16:46:04.631Z,7.27
2019-04-27T16:48:34.529Z,2.97
2019-04-27T16:51:01.904Z,2.80
2019-04-27T16:53:39.405Z,3.00
2019-04-27T16:56:14.404Z,2.70
2019-04-27T16:58:39.454Z,2.17
2019-04-27T17:01:10.620Z,2.40
2019-04-27T17:03:41.199Z,2.93
2019-04-27T17:06:09.141Z,2.37
2019-04-27T17:08:39.333Z,3.80
2019-04-27T17:12:43.276Z,3.40
2019-04-27T17:13:39.625Z,2.63
2019-04-27T17:16:24.661Z,14.83
2019-04-27T17:18:57.811Z,5.53
2019-04-27T17:21:23.571Z,6.20
2019-04-27T17:23:51.947Z,8.30
2019-04-27T17:26:23.767Z,3.53
2019-04-27T17:28:52.090Z,2.73
2019-04-27T17:31:22.126Z,1.73
2019-04-27T17:34:01.315Z,1.90
2019-04-27T17:36:29.746Z,3.70
2019-04-27T17:38:58.462Z,3.90
2019-04-27T17:41:28.301Z,3.23
2019-04-27T17:43:58.929Z,3.60
2019-04-27T17:46:28.192Z,3.50
2019-04-27T17:48:59.989Z,3.33
2019-04-27T17:51:28.551Z,5.83
2019-04-27T17:53:58.663Z,2.70
2019-04-27T17:56:34.035Z,3.63
2019-04-27T17:58:58.623Z,2.93
2019-04-27T18:01:30.129Z,3.60
2019-04-27T18:04:01.582Z,2.40
2019-04-27T18:06:29.573Z,3.93
2019-04-27T18:09:00.708Z,5.43
2019-04-27T18:11:28.763Z,4.80
2019-04-27T18:14:00.291Z,7.60
2019-04-27T18:16:30.325Z,3.20
2019-04-27T18:19:14.599Z,6.67
2019-04-27T18:22:00.516Z,4.40
2019-04-27T18:24:29.167Z,3.43
2019-04-27T18:27:03.276Z,3.47
2019-04-27T18:29:30.891Z,6.60
2019-04-27T18:31:59.522Z,3.10
2019-04-27T18:34:28.621Z,3.37
2019-04-27T18:36:57.202Z,2.93
2019-04-27T18:39:25.716Z,3.80
2019-04-27T18:41:54.494Z,4.27
2019-04-27T18:44:23.869Z,5.50
2019-04-27T18:46:53.788Z,4.07
2019-04-27T18:49:34.335Z,3.30
2019-04-27T18:52:10.013Z,6.23
2019-04-27T18:54:41.875Z,6.20
2019-04-27T18:57:10.626Z,4.50
2019-04-27T18:59:38.745Z,1.90
2019-04-27T19:02:08.486Z,3.50
2019-04-27T19:04:37.335Z,5.87
2019-04-27T19:07:05.781Z,3.33
2019-04-27T19:09:34.631Z,2.93
2019-04-27T19:12:03.030Z,2.77
2019-04-27T19:14:31.490Z,2.43
2019-04-27T19:16:59.886Z,2.10
2019-04-27T19:19:28.282Z,2.60
2019-04-27T19:21:58.735Z,3.10
2019-04-27T19:24:28.193Z,2.60
2019-04-27T19:27:18.310Z,3.50
2019-04-27T19:29:48.995Z,3.60
2019-04-27T19:32:17.936Z,2.43
2019-04-27T19:34:47.987Z,2.90
2019-04-27T19:37:18.280Z,4.10
2019-04-27T19:39:47.869Z,4.37
2019-04-27T19:42:18.397Z,3.87
2019-04-27T19:44:48.127Z,2.20
2019-04-27T19:47:16.657Z,4.73
2019-04-27T19:49:45.126Z,1.40
2019-04-27T19:52:14.412Z,3.00
2019-04-27T19:54:42.821Z,2.10
2019-04-27T19:57:11.249Z,2.50
2019-04-27T19:59:41.273Z,8.50
2019-04-27T20:02:11.284Z,5.00
2019-04-27T20:04:40.304Z,2.03
2019-04-27T20:07:10.527Z,2.83
2019-04-27T20:09:49.979Z,3.97
2019-04-27T20:12:18.888Z,3.23
2019-04-27T20:14:56.674Z,2.50
2019-04-27T20:17:27.255Z,2.83
2019-04-27T20:19:55.653Z,2.20
2019-04-27T20:22:24.389Z,4.07
2019-04-27T20:24:52.963Z,2.20
2019-04-27T20:27:21.356Z,3.47
2019-04-27T20:29:49.912Z,2.90
2019-04-27T20:32:18.299Z,2.10
2019-04-27T20:34:46.692Z,2.30
2019-04-27T20:37:15.128Z,5.30
2019-04-27T20:39:43.506Z,3.50
2019-04-27T20:42:12.590Z,1.70
2019-04-27T20:44:41.426Z,3.10
2019-04-27T20:47:10.423Z,3.20
2019-04-27T20:49:38.819Z,5.80
2019-04-27T20:52:14.963Z,2.90
2019-04-27T20:54:43.350Z,4.10
2019-04-27T20:57:11.738Z,2.57
2019-04-27T20:59:40.204Z,2.33
2019-04-27T21:02:10.303Z,2.70
2019-04-27T21:04:41.952Z,2.10
2019-04-27T21:07:12.136Z,3.60
2019-04-27T21:09:41.445Z,3.87
2019-04-27T21:12:09.797Z,5.70
2019-04-27T21:14:38.232Z,4.00
2019-04-27T21:17:06.624Z,3.10
2019-04-27T21:19:35.017Z,3.20
2019-04-27T21:22:03.536Z,3.30
2019-04-27T21:24:31.914Z,2.20
2019-04-27T21:27:00.309Z,5.27
2019-04-27T21:29:28.805Z,6.63
2019-04-27T21:31:57.198Z,21.20
2019-04-27T21:34:25.658Z,3.00
2019-04-27T21:36:54.096Z,4.63
2019-04-27T21:39:22.490Z,4.33
2019-04-27T21:41:51.737Z,3.43
2019-04-27T21:44:21.815Z,4.53
2019-04-27T21:46:51.846Z,3.80
2019-04-27T21:49:22.112Z,3.03
2019-04-27T21:52:14.403Z,3.30
2019-04-27T21:54:42.134Z,3.17
2019-04-27T21:57:11.165Z,3.10
2019-04-27T21:59:40.793Z,4.77
2019-04-27T22:02:12.110Z,2.67
2019-04-27T22:04:41.691Z,6.03
2019-04-27T22:07:11.545Z,3.37
2019-04-27T22:09:43.071Z,5.63
2019-04-27T22:12:11.244Z,8.73
2019-04-27T22:14:39.900Z,4.10
2019-04-27T22:17:08.283Z,3.93
2019-04-27T22:19:36.681Z,3.50
2019-04-27T22:22:06.806Z,2.83
2019-04-27T22:24:37.083Z,2.87
2019-04-27T22:27:05.464Z,3.77
2019-04-27T22:29:33.884Z,9.93
2019-04-27T22:32:03.145Z,3.50
2019-04-27T22:34:31.529Z,5.73
2019-04-27T22:37:00.910Z,4.00
2019-04-27T22:39:34.282Z,4.00
2019-04-27T22:42:16.435Z,2.93
2019-04-27T22:44:46.459Z,2.87
2019-04-27T22:47:14.853Z,3.77
2019-04-27T22:49:43.271Z,4.63
2019-04-27T22:52:11.835Z,3.50
2019-04-27T22:54:41.980Z,3.50
2019-04-27T22:57:14.965Z,8.70
2019-04-27T22:59:44.993Z,3.37
2019-04-27T23:02:21.809Z,2.70
2019-04-27T23:04:57.966Z,3.27
2019-04-27T23:07:26.354Z,3.70
2019-04-27T23:09:54.775Z,2.97
2019-04-27T23:12:23.263Z,2.90
2019-04-27T23:14:51.654Z,3.00
2019-04-27T23:17:22.613Z,7.63
2019-04-27T23:19:51.122Z,3.73
2019-04-27T23:22:21.272Z,3.93
2019-04-27T23:24:51.713Z,3.90
2019-04-27T23:27:21.521Z,2.60
2019-04-27T23:29:51.433Z,4.57
2019-04-27T23:32:36.614Z,3.47
2019-04-27T23:35:06.440Z,9.23
2019-04-27T23:37:34.824Z,5.43
2019-04-27T23:40:03.920Z,7.33
2019-04-27T23:42:32.549Z,3.30
2019-04-27T23:45:00.918Z,5.07
2019-04-27T23:47:29.341Z,3.83
2019-04-27T23:49:57.717Z,5.43
2019-04-27T23:52:27.747Z,5.47
2019-04-27T23:54:56.267Z,3.67
2019-04-27T23:57:24.636Z,4.23
2019-04-27T23:59:53.036Z,4.47
